sensor_id;sensor_type;location;lat;lon;timestamp;P1;durP1;ratioP1;P2;durP2;ratioP2
7753;SDS011;3921;42.266;23.122;2023-05-10T00:01:29;2.20;;;2.00;;
7753;SDS011;3921;42.266;23.122;2023-05-10T00:03:56;2.20;;;2.00;;
7753;SDS011;3921;42.266;23.122;2023-05-10T00:06:23;2.67;;;2.07;;
7753;SDS011;3921;42.266;23.122;2023-05-10T00:08:51;2.70;;;2.50;;
7753;SDS011;3921;42.266;23.122;2023-05-10T00:11:18;2.70;;;2.50;;
7753;SDS011;3921;42.266;23.122;2023-05-10T00:13:45;2.83;;;2.40;;
7753;SDS011;3921;42.266;23.122;2023-05-10T00:16:12;2.73;;;2.53;;
7753;SDS011;3921;42.266;23.122;2023-05-10T00:18:41;2.50;;;2.30;;
7753;SDS011;3921;42.266;23.122;2023-05-10T00:21:08;2.87;;;2.57;;
7753;SDS011;3921;42.266;23.122;2023-05-10T00:23:35;2.50;;;2.30;;
7753;SDS011;3921;42.266;23.122;2023-05-10T00:26:02;3.20;;;2.73;;
7753;SDS011;3921;42.266;23.122;2023-05-10T00:28:29;4.17;;;2.50;;
7753;SDS011;3921;42.266;23.122;2023-05-10T00:30:57;3.00;;;2.80;;
7753;SDS011;3921;42.266;23.122;2023-05-10T00:33:24;2.80;;;2.60;;
7753;SDS011;3921;42.266;23.122;2023-05-10T00:35:52;3.10;;;2.90;;
7753;SDS011;3921;42.266;23.122;2023-05-10T00:38:19;2.93;;;2.73;;
7753;SDS011;3921;42.266;23.122;2023-05-10T00:40:46;4.27;;;3.10;;
7753;SDS011;3921;42.266;23.122;2023-05-10T00:43:14;3.70;;;3.40;;
7753;SDS011;3921;42.266;23.122;2023-05-10T00:45:40;4.10;;;3.40;;
7753;SDS011;3921;42.266;23.122;2023-05-10T00:48:08;4.17;;;3.40;;
7753;SDS011;3921;42.266;23.122;2023-05-10T00:50:35;3.80;;;3.33;;
7753;SDS011;3921;42.266;23.122;2023-05-10T00:53:03;3.50;;;3.20;;
7753;SDS011;3921;42.266;23.122;2023-05-10T00:55:31;3.37;;;3.17;;
7753;SDS011;3921;42.266;23.122;2023-05-10T00:57:58;3.20;;;3.00;;
7753;SDS011;3921;42.266;23.122;2023-05-10T01:00:25;3.60;;;3.30;;
7753;SDS011;3921;42.266;23.122;2023-05-10T01:02:53;3.90;;;3.60;;
7753;SDS011;3921;42.266;23.122;2023-05-10T01:05:22;3.20;;;2.90;;
7753;SDS011;3921;42.266;23.122;2023-05-10T01:07:49;3.23;;;3.03;;
7753;SDS011;3921;42.266;23.122;2023-05-10T01:10:18;3.67;;;3.37;;
7753;SDS011;3921;42.266;23.122;2023-05-10T01:12:45;3.60;;;3.30;;
7753;SDS011;3921;42.266;23.122;2023-05-10T01:15:13;2.90;;;2.70;;
7753;SDS011;3921;42.266;23.122;2023-05-10T01:17:42;2.90;;;2.70;;
7753;SDS011;3921;42.266;23.122;2023-05-10T01:20:12;3.00;;;2.80;;
7753;SDS011;3921;42.266;23.122;2023-05-10T01:22:49;2.87;;;2.67;;
7753;SDS011;3921;42.266;23.122;2023-05-10T01:26:04;2.73;;;2.53;;
7753;SDS011;3921;42.266;23.122;2023-05-10T01:29:05;2.77;;;2.57;;
7753;SDS011;3921;42.266;23.122;2023-05-10T01:34:54;2.73;;;2.57;;
7753;SDS011;3921;42.266;23.122;2023-05-10T01:37:28;2.77;;;2.57;;
7753;SDS011;3921;42.266;23.122;2023-05-10T01:40:04;2.70;;;2.50;;
7753;SDS011;3921;42.266;23.122;2023-05-10T01:42:40;2.80;;;2.60;;
7753;SDS011;3921;42.266;23.122;2023-05-10T01:45:14;2.83;;;2.63;;
7753;SDS011;3921;42.266;23.122;2023-05-10T01:47:50;2.77;;;2.57;;
7753;SDS011;3921;42.266;23.122;2023-05-10T01:50:27;2.73;;;2.53;;
7753;SDS011;3921;42.266;23.122;2023-05-10T01:52:57;3.07;;;2.77;;
7753;SDS011;3921;42.266;23.122;2023-05-10T01:55:27;3.07;;;2.77;;
7753;SDS011;3921;42.266;23.122;2023-05-10T01:58:00;3.50;;;2.40;;
7753;SDS011;3921;42.266;23.122;2023-05-10T02:00:31;2.70;;;2.50;;
7753;SDS011;3921;42.266;23.122;2023-05-10T02:03:00;2.70;;;2.50;;
7753;SDS011;3921;42.266;23.122;2023-05-10T02:05:36;2.90;;;2.70;;
7753;SDS011;3921;42.266;23.122;2023-05-10T02:08:07;2.93;;;2.73;;
7753;SDS011;3921;42.266;23.122;2023-05-10T02:10:35;3.03;;;2.70;;
7753;SDS011;3921;42.266;23.122;2023-05-10T02:13:03;3.80;;;2.97;;
7753;SDS011;3921;42.266;23.122;2023-05-10T02:15:33;3.17;;;2.63;;
7753;SDS011;3921;42.266;23.122;2023-05-10T02:18:02;2.53;;;2.43;;
7753;SDS011;3921;42.266;23.122;2023-05-10T02:20:31;2.83;;;2.63;;
7753;SDS011;3921;42.266;23.122;2023-05-10T02:23:02;3.03;;;2.83;;
7753;SDS011;3921;42.266;23.122;2023-05-10T02:25:31;3.10;;;2.83;;
7753;SDS011;3921;42.266;23.122;2023-05-10T02:28:00;3.27;;;2.97;;
7753;SDS011;3921;42.266;23.122;2023-05-10T02:30:30;3.50;;;3.10;;
7753;SDS011;3921;42.266;23.122;2023-05-10T02:32:58;3.17;;;2.97;;
7753;SDS011;3921;42.266;23.122;2023-05-10T02:35:27;3.93;;;3.53;;
7753;SDS011;3921;42.266;23.122;2023-05-10T02:37:54;5.57;;;3.50;;
7753;SDS011;3921;42.266;23.122;2023-05-10T02:40:24;3.80;;;3.50;;
7753;SDS011;3921;42.266;23.122;2023-05-10T02:42:54;3.87;;;3.57;;
7753;SDS011;3921;42.266;23.122;2023-05-10T02:45:24;3.73;;;3.43;;
7753;SDS011;3921;42.266;23.122;2023-05-10T02:47:54;4.23;;;3.83;;
7753;SDS011;3921;42.266;23.122;2023-05-10T02:50:26;4.77;;;3.87;;
7753;SDS011;3921;42.266;23.122;2023-05-10T02:52:56;3.90;;;3.57;;
7753;SDS011;3921;42.266;23.122;2023-05-10T02:55:30;4.43;;;4.03;;
7753;SDS011;3921;42.266;23.122;2023-05-10T02:58:00;4.67;;;4.03;;
7753;SDS011;3921;42.266;23.122;2023-05-10T03:00:28;4.33;;;3.93;;
7753;SDS011;3921;42.266;23.122;2023-05-10T03:02:55;4.20;;;3.80;;
7753;SDS011;3921;42.266;23.122;2023-05-10T03:05:22;4.60;;;4.20;;
7753;SDS011;3921;42.266;23.122;2023-05-10T03:07:50;4.27;;;3.80;;
7753;SDS011;3921;42.266;23.122;2023-05-10T03:10:17;4.27;;;3.97;;
7753;SDS011;3921;42.266;23.122;2023-05-10T03:12:51;4.20;;;3.77;;
7753;SDS011;3921;42.266;23.122;2023-05-10T03:15:35;4.07;;;3.70;;
7753;SDS011;3921;42.266;23.122;2023-05-10T03:18:07;4.60;;;4.20;;
7753;SDS011;3921;42.266;23.122;2023-05-10T03:20:38;4.10;;;3.73;;
7753;SDS011;3921;42.266;23.122;2023-05-10T03:23:11;4.67;;;4.27;;
7753;SDS011;3921;42.266;23.122;2023-05-10T03:25:43;4.40;;;4.00;;
7753;SDS011;3921;42.266;23.122;2023-05-10T03:28:13;4.43;;;4.03;;
7753;SDS011;3921;42.266;23.122;2023-05-10T03:30:42;4.97;;;4.30;;
7753;SDS011;3921;42.266;23.122;2023-05-10T03:33:10;4.30;;;3.90;;
7753;SDS011;3921;42.266;23.122;2023-05-10T03:35:37;4.90;;;3.93;;
7753;SDS011;3921;42.266;23.122;2023-05-10T03:38:05;5.90;;;5.30;;
7753;SDS011;3921;42.266;23.122;2023-05-10T03:40:32;5.87;;;4.43;;
7753;SDS011;3921;42.266;23.122;2023-05-10T03:42:59;5.20;;;4.70;;
7753;SDS011;3921;42.266;23.122;2023-05-10T03:45:27;4.90;;;4.37;;
7753;SDS011;3921;42.266;23.122;2023-05-10T03:47:56;4.73;;;4.23;;
7753;SDS011;3921;42.266;23.122;2023-05-10T03:50:24;4.90;;;4.50;;
7753;SDS011;3921;42.266;23.122;2023-05-10T03:52:51;5.07;;;4.60;;
7753;SDS011;3921;42.266;23.122;2023-05-10T03:55:18;4.90;;;4.43;;
7753;SDS011;3921;42.266;23.122;2023-05-10T03:57:45;5.80;;;5.10;;
7753;SDS011;3921;42.266;23.122;2023-05-10T04:00:14;4.80;;;4.40;;
7753;SDS011;3921;42.266;23.122;2023-05-10T04:02:43;5.03;;;4.53;;
7753;SDS011;3921;42.266;23.122;2023-05-10T04:05:11;4.80;;;4.40;;
7753;SDS011;3921;42.266;23.122;2023-05-10T04:07:38;5.60;;;4.90;;
7753;SDS011;3921;42.266;23.122;2023-05-10T04:10:05;5.80;;;5.00;;
7753;SDS011;3921;42.266;23.122;2023-05-10T04:12:33;6.20;;;4.63;;
7753;SDS011;3921;42.266;23.122;2023-05-10T04:15:09;5.70;;;5.20;;
7753;SDS011;3921;42.266;23.122;2023-05-10T04:17:36;5.83;;;5.20;;
7753;SDS011;3921;42.266;23.122;2023-05-10T04:20:06;5.83;;;5.00;;
7753;SDS011;3921;42.266;23.122;2023-05-10T04:22:33;7.17;;;5.77;;
7753;SDS011;3921;42.266;23.122;2023-05-10T04:25:00;5.93;;;5.43;;
7753;SDS011;3921;42.266;23.122;2023-05-10T04:27:27;6.33;;;5.73;;
7753;SDS011;3921;42.266;23.122;2023-05-10T04:29:54;8.63;;;5.60;;
7753;SDS011;3921;42.266;23.122;2023-05-10T04:32:23;6.50;;;5.37;;
7753;SDS011;3921;42.266;23.122;2023-05-10T04:34:50;5.97;;;5.37;;
7753;SDS011;3921;42.266;23.122;2023-05-10T04:37:20;6.00;;;5.37;;
7753;SDS011;3921;42.266;23.122;2023-05-10T04:39:48;6.17;;;5.17;;
7753;SDS011;3921;42.266;23.122;2023-05-10T04:42:15;5.73;;;4.87;;
7753;SDS011;3921;42.266;23.122;2023-05-10T04:44:42;6.07;;;5.13;;
7753;SDS011;3921;42.266;23.122;2023-05-10T04:47:09;6.37;;;5.70;;
7753;SDS011;3921;42.266;23.122;2023-05-10T04:49:38;7.10;;;5.10;;
7753;SDS011;3921;42.266;23.122;2023-05-10T04:52:05;5.37;;;4.97;;
7753;SDS011;3921;42.266;23.122;2023-05-10T04:54:34;5.60;;;4.67;;
7753;SDS011;3921;42.266;23.122;2023-05-10T04:57:01;6.77;;;5.43;;
7753;SDS011;3921;42.266;23.122;2023-05-10T04:59:47;5.13;;;4.63;;
7753;SDS011;3921;42.266;23.122;2023-05-10T05:02:21;6.13;;;5.10;;
7753;SDS011;3921;42.266;23.122;2023-05-10T05:04:48;5.40;;;4.70;;
7753;SDS011;3921;42.266;23.122;2023-05-10T05:07:16;6.53;;;5.13;;
7753;SDS011;3921;42.266;23.122;2023-05-10T05:15:45;23.13;;;17.10;;
7753;SDS011;3921;42.266;23.122;2023-05-10T05:18:12;9.23;;;5.93;;
7753;SDS011;3921;42.266;23.122;2023-05-10T05:20:47;5.57;;;4.90;;
7753;SDS011;3921;42.266;23.122;2023-05-10T05:23:14;8.40;;;5.43;;
7753;SDS011;3921;42.266;23.122;2023-05-10T05:25:41;8.23;;;5.40;;
7753;SDS011;3921;42.266;23.122;2023-05-10T05:28:08;7.97;;;5.47;;
7753;SDS011;3921;42.266;23.122;2023-05-10T05:30:39;7.73;;;5.33;;
7753;SDS011;3921;42.266;23.122;2023-05-10T05:33:06;9.73;;;5.83;;
7753;SDS011;3921;42.266;23.122;2023-05-10T05:35:34;12.93;;;5.33;;
7753;SDS011;3921;42.266;23.122;2023-05-10T05:38:01;5.80;;;5.17;;
7753;SDS011;3921;42.266;23.122;2023-05-10T05:40:34;14.87;;;12.53;;
7753;SDS011;3921;42.266;23.122;2023-05-10T05:43:01;6.03;;;5.27;;
7753;SDS011;3921;42.266;23.122;2023-05-10T05:45:28;6.10;;;5.50;;
7753;SDS011;3921;42.266;23.122;2023-05-10T05:48:03;6.70;;;5.63;;
7753;SDS011;3921;42.266;23.122;2023-05-10T05:50:34;7.43;;;5.87;;
7753;SDS011;3921;42.266;23.122;2023-05-10T05:53:02;9.80;;;5.90;;
7753;SDS011;3921;42.266;23.122;2023-05-10T05:55:30;8.10;;;5.57;;
7753;SDS011;3921;42.266;23.122;2023-05-10T05:57:57;7.50;;;6.63;;
7753;SDS011;3921;42.266;23.122;2023-05-10T06:00:24;8.53;;;6.97;;
7753;SDS011;3921;42.266;23.122;2023-05-10T06:02:51;7.53;;;5.80;;
7753;SDS011;3921;42.266;23.122;2023-05-10T06:05:19;6.80;;;5.83;;
7753;SDS011;3921;42.266;23.122;2023-05-10T06:07:47;10.53;;;5.83;;
7753;SDS011;3921;42.266;23.122;2023-05-10T06:10:14;9.97;;;6.60;;
7753;SDS011;3921;42.266;23.122;2023-05-10T06:12:41;10.57;;;5.93;;
7753;SDS011;3921;42.266;23.122;2023-05-10T06:15:08;7.90;;;5.73;;
7753;SDS011;3921;42.266;23.122;2023-05-10T06:17:36;9.47;;;6.00;;
7753;SDS011;3921;42.266;23.122;2023-05-10T06:20:04;9.67;;;6.40;;
7753;SDS011;3921;42.266;23.122;2023-05-10T06:22:33;6.37;;;5.23;;
7753;SDS011;3921;42.266;23.122;2023-05-10T06:25:00;6.57;;;5.77;;
7753;SDS011;3921;42.266;23.122;2023-05-10T06:27:27;6.27;;;5.63;;
7753;SDS011;3921;42.266;23.122;2023-05-10T06:29:54;6.77;;;5.93;;
7753;SDS011;3921;42.266;23.122;2023-05-10T06:32:21;7.73;;;5.73;;
7753;SDS011;3921;42.266;23.122;2023-05-10T06:34:48;5.80;;;5.13;;
7753;SDS011;3921;42.266;23.122;2023-05-10T06:37:16;7.77;;;5.57;;
7753;SDS011;3921;42.266;23.122;2023-05-10T06:39:44;9.67;;;6.23;;
7753;SDS011;3921;42.266;23.122;2023-05-10T06:42:14;9.17;;;6.60;;
7753;SDS011;3921;42.266;23.122;2023-05-10T06:44:41;9.37;;;6.77;;
7753;SDS011;3921;42.266;23.122;2023-05-10T06:47:08;7.37;;;6.40;;
7753;SDS011;3921;42.266;23.122;2023-05-10T06:49:37;9.93;;;7.20;;
7753;SDS011;3921;42.266;23.122;2023-05-10T06:52:10;7.47;;;6.67;;
7753;SDS011;3921;42.266;23.122;2023-05-10T06:54:38;6.90;;;6.20;;
7753;SDS011;3921;42.266;23.122;2023-05-10T06:57:06;8.17;;;6.73;;
7753;SDS011;3921;42.266;23.122;2023-05-10T06:59:34;6.43;;;5.67;;
7753;SDS011;3921;42.266;23.122;2023-05-10T07:02:01;8.80;;;6.33;;
7753;SDS011;3921;42.266;23.122;2023-05-10T07:04:37;7.10;;;6.23;;
7753;SDS011;3921;42.266;23.122;2023-05-10T07:07:04;9.63;;;6.20;;
7753;SDS011;3921;42.266;23.122;2023-05-10T07:09:37;8.13;;;6.20;;
7753;SDS011;3921;42.266;23.122;2023-05-10T07:12:04;9.33;;;7.03;;
7753;SDS011;3921;42.266;23.122;2023-05-10T07:14:33;11.37;;;7.23;;
7753;SDS011;3921;42.266;23.122;2023-05-10T07:17:00;8.80;;;6.60;;
7753;SDS011;3921;42.266;23.122;2023-05-10T07:19:27;10.70;;;7.13;;
7753;SDS011;3921;42.266;23.122;2023-05-10T07:21:55;8.17;;;6.87;;
7753;SDS011;3921;42.266;23.122;2023-05-10T07:24:22;8.97;;;6.80;;
7753;SDS011;3921;42.266;23.122;2023-05-10T07:26:49;8.47;;;7.23;;
7753;SDS011;3921;42.266;23.122;2023-05-10T07:29:16;11.17;;;7.37;;
7753;SDS011;3921;42.266;23.122;2023-05-10T07:31:47;10.40;;;7.90;;
7753;SDS011;3921;42.266;23.122;2023-05-10T07:34:17;9.87;;;7.73;;
7753;SDS011;3921;42.266;23.122;2023-05-10T07:36:46;11.87;;;8.97;;
7753;SDS011;3921;42.266;23.122;2023-05-10T07:39:14;13.47;;;8.27;;
7753;SDS011;3921;42.266;23.122;2023-05-10T07:41:41;12.90;;;9.07;;
7753;SDS011;3921;42.266;23.122;2023-05-10T07:44:09;10.93;;;7.90;;
7753;SDS011;3921;42.266;23.122;2023-05-10T07:46:36;9.07;;;7.60;;
7753;SDS011;3921;42.266;23.122;2023-05-10T07:49:04;9.13;;;7.77;;
7753;SDS011;3921;42.266;23.122;2023-05-10T07:51:32;10.63;;;7.37;;
7753;SDS011;3921;42.266;23.122;2023-05-10T07:53:59;9.40;;;7.90;;
7753;SDS011;3921;42.266;23.122;2023-05-10T07:59:05;9.30;;;7.70;;
7753;SDS011;3921;42.266;23.122;2023-05-10T08:01:46;9.67;;;7.23;;
7753;SDS011;3921;42.266;23.122;2023-05-10T08:04:14;9.07;;;7.80;;
7753;SDS011;3921;42.266;23.122;2023-05-10T08:06:46;10.97;;;7.70;;
7753;SDS011;3921;42.266;23.122;2023-05-10T08:09:13;9.57;;;6.63;;
7753;SDS011;3921;42.266;23.122;2023-05-10T08:11:50;9.17;;;7.70;;
7753;SDS011;3921;42.266;23.122;2023-05-10T08:14:20;8.23;;;7.00;;
7753;SDS011;3921;42.266;23.122;2023-05-10T08:16:47;9.73;;;7.30;;
7753;SDS011;3921;42.266;23.122;2023-05-10T08:19:21;8.70;;;7.07;;
7753;SDS011;3921;42.266;23.122;2023-05-10T08:21:51;10.60;;;7.70;;
7753;SDS011;3921;42.266;23.122;2023-05-10T08:27:11;7.67;;;6.87;;
7753;SDS011;3921;42.266;23.122;2023-05-10T08:29:53;9.90;;;7.47;;
7753;SDS011;3921;42.266;23.122;2023-05-10T10:09:56;12.15;;;10.55;;
7753;SDS011;3921;42.266;23.122;2023-05-10T10:12:25;10.33;;;8.97;;
7753;SDS011;3921;42.266;23.122;2023-05-10T10:14:52;14.13;;;9.73;;
7753;SDS011;3921;42.266;23.122;2023-05-10T10:17:21;13.67;;;10.77;;
7753;SDS011;3921;42.266;23.122;2023-05-10T10:19:48;12.47;;;10.40;;
7753;SDS011;3921;42.266;23.122;2023-05-10T10:22:15;11.20;;;10.00;;
7753;SDS011;3921;42.266;23.122;2023-05-10T10:24:43;13.67;;;9.87;;
7753;SDS011;3921;42.266;23.122;2023-05-10T10:27:15;11.87;;;10.07;;
7753;SDS011;3921;42.266;23.122;2023-05-10T10:29:52;15.10;;;10.97;;
7753;SDS011;3921;42.266;23.122;2023-05-10T10:35:22;12.57;;;9.77;;
7753;SDS011;3921;42.266;23.122;2023-05-10T10:37:50;11.00;;;9.67;;
7753;SDS011;3921;42.266;23.122;2023-05-10T10:40:24;11.87;;;9.90;;
7753;SDS011;3921;42.266;23.122;2023-05-10T10:42:53;9.83;;;8.57;;
7753;SDS011;3921;42.266;23.122;2023-05-10T10:45:21;11.80;;;9.07;;
7753;SDS011;3921;42.266;23.122;2023-05-10T10:47:52;10.20;;;9.20;;
7753;SDS011;3921;42.266;23.122;2023-05-10T10:50:44;11.47;;;8.57;;
7753;SDS011;3921;42.266;23.122;2023-05-10T10:53:12;9.40;;;8.50;;
7753;SDS011;3921;42.266;23.122;2023-05-10T10:55:45;10.07;;;8.27;;
7753;SDS011;3921;42.266;23.122;2023-05-10T11:01:15;9.30;;;8.40;;
7753;SDS011;3921;42.266;23.122;2023-05-10T11:03:56;10.33;;;8.97;;
7753;SDS011;3921;42.266;23.122;2023-05-10T11:06:44;10.77;;;8.90;;
7753;SDS011;3921;42.266;23.122;2023-05-10T11:09:11;11.13;;;9.33;;
7753;SDS011;3921;42.266;23.122;2023-05-10T11:11:48;10.30;;;8.43;;
7753;SDS011;3921;42.266;23.122;2023-05-10T11:14:19;10.43;;;9.23;;
7753;SDS011;3921;42.266;23.122;2023-05-10T11:16:49;10.90;;;8.93;;
7753;SDS011;3921;42.266;23.122;2023-05-10T11:19:16;15.20;;;13.40;;
7753;SDS011;3921;42.266;23.122;2023-05-10T11:21:44;12.43;;;10.10;;
7753;SDS011;3921;42.266;23.122;2023-05-10T11:24:14;12.17;;;9.90;;
7753;SDS011;3921;42.266;23.122;2023-05-10T11:26:42;13.17;;;10.30;;
7753;SDS011;3921;42.266;23.122;2023-05-10T11:29:17;14.10;;;11.20;;
7753;SDS011;3921;42.266;23.122;2023-05-10T11:31:49;13.20;;;10.33;;
7753;SDS011;3921;42.266;23.122;2023-05-10T11:34:23;15.13;;;12.10;;
7753;SDS011;3921;42.266;23.122;2023-05-10T11:36:51;15.23;;;11.50;;
7753;SDS011;3921;42.266;23.122;2023-05-10T11:39:19;15.73;;;11.90;;
7753;SDS011;3921;42.266;23.122;2023-05-10T11:41:47;12.47;;;10.77;;
7753;SDS011;3921;42.266;23.122;2023-05-10T11:44:15;12.97;;;11.60;;
7753;SDS011;3921;42.266;23.122;2023-05-10T11:46:42;12.60;;;10.77;;
7753;SDS011;3921;42.266;23.122;2023-05-10T11:49:11;13.77;;;11.93;;
7753;SDS011;3921;42.266;23.122;2023-05-10T11:51:38;17.60;;;12.13;;
7753;SDS011;3921;42.266;23.122;2023-05-10T11:54:07;15.73;;;12.00;;
7753;SDS011;3921;42.266;23.122;2023-05-10T11:56:35;13.40;;;10.97;;
7753;SDS011;3921;42.266;23.122;2023-05-10T11:59:03;14.07;;;11.40;;
7753;SDS011;3921;42.266;23.122;2023-05-10T12:01:30;14.50;;;12.37;;
7753;SDS011;3921;42.266;23.122;2023-05-10T12:03:58;13.40;;;11.00;;
7753;SDS011;3921;42.266;23.122;2023-05-10T12:06:28;13.53;;;10.97;;
7753;SDS011;3921;42.266;23.122;2023-05-10T12:08:56;11.87;;;10.67;;
7753;SDS011;3921;42.266;23.122;2023-05-10T12:11:24;12.60;;;11.27;;
7753;SDS011;3921;42.266;23.122;2023-05-10T12:13:52;12.10;;;10.80;;
7753;SDS011;3921;42.266;23.122;2023-05-10T12:16:20;15.77;;;11.57;;
7753;SDS011;3921;42.266;23.122;2023-05-10T12:18:48;14.47;;;11.27;;
7753;SDS011;3921;42.266;23.122;2023-05-10T12:21:16;13.63;;;11.27;;
7753;SDS011;3921;42.266;23.122;2023-05-10T12:23:46;14.97;;;11.23;;
7753;SDS011;3921;42.266;23.122;2023-05-10T12:26:16;12.90;;;11.50;;
7753;SDS011;3921;42.266;23.122;2023-05-10T12:28:43;11.93;;;10.43;;
7753;SDS011;3921;42.266;23.122;2023-05-10T12:31:10;12.97;;;10.67;;
7753;SDS011;3921;42.266;23.122;2023-05-10T12:33:37;12.77;;;10.30;;
7753;SDS011;3921;42.266;23.122;2023-05-10T12:36:06;16.63;;;11.73;;
7753;SDS011;3921;42.266;23.122;2023-05-10T12:38:35;13.43;;;10.70;;
7753;SDS011;3921;42.266;23.122;2023-05-10T12:41:05;17.97;;;13.37;;
7753;SDS011;3921;42.266;23.122;2023-05-10T12:43:33;13.70;;;10.90;;
7753;SDS011;3921;42.266;23.122;2023-05-10T12:46:04;12.80;;;11.03;;
7753;SDS011;3921;42.266;23.122;2023-05-10T12:48:32;13.63;;;10.80;;
7753;SDS011;3921;42.266;23.122;2023-05-10T12:51:00;11.53;;;10.33;;
7753;SDS011;3921;42.266;23.122;2023-05-10T12:53:27;14.30;;;11.30;;
7753;SDS011;3921;42.266;23.122;2023-05-10T12:55:55;12.33;;;10.13;;
7753;SDS011;3921;42.266;23.122;2023-05-10T12:58:27;12.73;;;10.40;;
7753;SDS011;3921;42.266;23.122;2023-05-10T13:01:32;12.50;;;9.77;;
7753;SDS011;3921;42.266;23.122;2023-05-10T13:03:59;17.23;;;10.40;;
7753;SDS011;3921;42.266;23.122;2023-05-10T13:06:26;14.77;;;10.93;;
7753;SDS011;3921;42.266;23.122;2023-05-10T13:08:53;14.47;;;10.73;;
7753;SDS011;3921;42.266;23.122;2023-05-10T13:11:20;13.83;;;10.23;;
7753;SDS011;3921;42.266;23.122;2023-05-10T13:13:48;11.50;;;9.90;;
7753;SDS011;3921;42.266;23.122;2023-05-10T13:16:15;12.47;;;9.87;;
7753;SDS011;3921;42.266;23.122;2023-05-10T13:18:42;12.70;;;10.20;;
7753;SDS011;3921;42.266;23.122;2023-05-10T13:21:09;11.43;;;9.30;;
7753;SDS011;3921;42.266;23.122;2023-05-10T13:23:36;13.50;;;10.40;;
7753;SDS011;3921;42.266;23.122;2023-05-10T13:26:03;14.33;;;9.63;;
7753;SDS011;3921;42.266;23.122;2023-05-10T13:31:29;17.47;;;11.37;;
7753;SDS011;3921;42.266;23.122;2023-05-10T13:33:56;12.60;;;9.97;;
7753;SDS011;3921;42.266;23.122;2023-05-10T13:36:22;12.23;;;9.97;;
7753;SDS011;3921;42.266;23.122;2023-05-10T13:38:49;13.23;;;9.70;;
7753;SDS011;3921;42.266;23.122;2023-05-10T13:41:16;13.63;;;9.57;;
7753;SDS011;3921;42.266;23.122;2023-05-10T13:43:43;15.80;;;10.07;;
7753;SDS011;3921;42.266;23.122;2023-05-10T13:46:12;13.67;;;10.10;;
7753;SDS011;3921;42.266;23.122;2023-05-10T13:48:39;12.80;;;9.90;;
7753;SDS011;3921;42.266;23.122;2023-05-10T13:51:06;13.03;;;9.47;;
7753;SDS011;3921;42.266;23.122;2023-05-10T13:53:33;12.97;;;9.57;;
7753;SDS011;3921;42.266;23.122;2023-05-10T13:59:03;15.63;;;9.53;;
7753;SDS011;3921;42.266;23.122;2023-05-10T14:01:31;12.77;;;9.90;;
7753;SDS011;3921;42.266;23.122;2023-05-10T14:03:59;12.53;;;10.27;;
7753;SDS011;3921;42.266;23.122;2023-05-10T14:06:26;12.33;;;9.33;;
7753;SDS011;3921;42.266;23.122;2023-05-10T14:08:53;12.37;;;9.50;;
7753;SDS011;3921;42.266;23.122;2023-05-10T14:11:20;10.93;;;9.30;;
7753;SDS011;3921;42.266;23.122;2023-05-10T14:13:47;10.80;;;8.20;;
7753;SDS011;3921;42.266;23.122;2023-05-10T14:16:14;13.17;;;9.93;;
7753;SDS011;3921;42.266;23.122;2023-05-10T14:18:42;12.37;;;8.97;;
7753;SDS011;3921;42.266;23.122;2023-05-10T14:21:09;10.27;;;8.93;;
7753;SDS011;3921;42.266;23.122;2023-05-10T14:23:36;11.60;;;9.03;;
7753;SDS011;3921;42.266;23.122;2023-05-10T14:26:05;19.03;;;8.97;;
7753;SDS011;3921;42.266;23.122;2023-05-10T14:28:33;14.77;;;9.53;;
7753;SDS011;3921;42.266;23.122;2023-05-10T14:31:00;22.20;;;9.50;;
7753;SDS011;3921;42.266;23.122;2023-05-10T14:33:27;13.37;;;9.53;;
7753;SDS011;3921;42.266;23.122;2023-05-10T14:35:56;11.30;;;8.90;;
7753;SDS011;3921;42.266;23.122;2023-05-10T14:38:25;12.50;;;9.27;;
7753;SDS011;3921;42.266;23.122;2023-05-10T14:40:51;11.03;;;9.20;;
7753;SDS011;3921;42.266;23.122;2023-05-10T14:43:18;14.00;;;9.60;;
7753;SDS011;3921;42.266;23.122;2023-05-10T14:45:45;12.07;;;9.33;;
7753;SDS011;3921;42.266;23.122;2023-05-10T14:48:12;13.20;;;9.13;;
7753;SDS011;3921;42.266;23.122;2023-05-10T14:50:41;13.20;;;9.10;;
7753;SDS011;3921;42.266;23.122;2023-05-10T14:56:07;11.70;;;9.20;;
7753;SDS011;3921;42.266;23.122;2023-05-10T14:58:34;11.07;;;9.53;;
7753;SDS011;3921;42.266;23.122;2023-05-10T15:01:00;13.00;;;9.93;;
7753;SDS011;3921;42.266;23.122;2023-05-10T15:03:27;11.00;;;9.33;;
7753;SDS011;3921;42.266;23.122;2023-05-10T15:05:54;11.07;;;9.10;;
7753;SDS011;3921;42.266;23.122;2023-05-10T15:08:22;15.07;;;9.67;;
7753;SDS011;3921;42.266;23.122;2023-05-10T15:10:51;14.33;;;9.97;;
7753;SDS011;3921;42.266;23.122;2023-05-10T15:13:20;13.87;;;9.63;;
7753;SDS011;3921;42.266;23.122;2023-05-10T15:15:47;12.93;;;10.47;;
7753;SDS011;3921;42.266;23.122;2023-05-10T15:18:14;12.10;;;10.53;;
7753;SDS011;3921;42.266;23.122;2023-05-10T15:20:41;11.87;;;10.20;;
7753;SDS011;3921;42.266;23.122;2023-05-10T15:23:07;15.73;;;10.77;;
7753;SDS011;3921;42.266;23.122;2023-05-10T15:25:34;11.73;;;10.33;;
7753;SDS011;3921;42.266;23.122;2023-05-10T15:28:04;12.13;;;9.50;;
7753;SDS011;3921;42.266;23.122;2023-05-10T15:30:31;12.63;;;10.60;;
7753;SDS011;3921;42.266;23.122;2023-05-10T15:32:58;12.17;;;10.73;;
7753;SDS011;3921;42.266;23.122;2023-05-10T15:35:26;12.07;;;10.77;;
7753;SDS011;3921;42.266;23.122;2023-05-10T15:37:53;14.93;;;10.47;;
7753;SDS011;3921;42.266;23.122;2023-05-10T15:40:20;12.50;;;10.80;;
7753;SDS011;3921;42.266;23.122;2023-05-10T15:42:48;16.93;;;11.93;;
7753;SDS011;3921;42.266;23.122;2023-05-10T15:45:16;13.27;;;10.17;;
7753;SDS011;3921;42.266;23.122;2023-05-10T15:47:43;13.37;;;10.60;;
7753;SDS011;3921;42.266;23.122;2023-05-10T15:50:10;15.13;;;10.63;;
7753;SDS011;3921;42.266;23.122;2023-05-10T15:52:37;16.20;;;10.90;;
7753;SDS011;3921;42.266;23.122;2023-05-10T15:55:04;12.37;;;10.20;;
7753;SDS011;3921;42.266;23.122;2023-05-10T15:57:36;13.90;;;10.97;;
7753;SDS011;3921;42.266;23.122;2023-05-10T16:00:05;16.30;;;10.87;;
7753;SDS011;3921;42.266;23.122;2023-05-10T16:02:34;14.17;;;10.60;;
7753;SDS011;3921;42.266;23.122;2023-05-10T16:05:01;12.87;;;10.50;;
7753;SDS011;3921;42.266;23.122;2023-05-10T16:07:28;13.07;;;10.37;;
7753;SDS011;3921;42.266;23.122;2023-05-10T16:09:55;14.40;;;9.77;;
7753;SDS011;3921;42.266;23.122;2023-05-10T16:12:28;13.73;;;9.73;;
7753;SDS011;3921;42.266;23.122;2023-05-10T16:14:55;14.60;;;10.80;;
7753;SDS011;3921;42.266;23.122;2023-05-10T16:17:22;13.37;;;10.47;;
7753;SDS011;3921;42.266;23.122;2023-05-10T16:19:50;11.33;;;10.07;;
7753;SDS011;3921;42.266;23.122;2023-05-10T16:22:17;13.83;;;10.27;;
7753;SDS011;3921;42.266;23.122;2023-05-10T16:24:46;11.33;;;10.17;;
7753;SDS011;3921;42.266;23.122;2023-05-10T16:27:13;11.30;;;9.30;;
7753;SDS011;3921;42.266;23.122;2023-05-10T16:29:40;11.17;;;9.40;;
7753;SDS011;3921;42.266;23.122;2023-05-10T16:32:07;12.67;;;10.00;;
7753;SDS011;3921;42.266;23.122;2023-05-10T16:34:34;12.47;;;10.50;;
7753;SDS011;3921;42.266;23.122;2023-05-10T16:37:02;12.07;;;9.00;;
7753;SDS011;3921;42.266;23.122;2023-05-10T16:39:29;10.93;;;9.50;;
7753;SDS011;3921;42.266;23.122;2023-05-10T16:41:56;13.00;;;9.80;;
7753;SDS011;3921;42.266;23.122;2023-05-10T16:44:23;12.43;;;9.60;;
7753;SDS011;3921;42.266;23.122;2023-05-10T16:46:50;12.60;;;10.73;;
7753;SDS011;3921;42.266;23.122;2023-05-10T16:49:17;11.27;;;9.60;;
7753;SDS011;3921;42.266;23.122;2023-05-10T16:51:44;14.83;;;10.13;;
7753;SDS011;3921;42.266;23.122;2023-05-10T16:54:12;13.10;;;10.10;;
7753;SDS011;3921;42.266;23.122;2023-05-10T16:56:41;12.40;;;10.10;;
7753;SDS011;3921;42.266;23.122;2023-05-10T16:59:08;14.47;;;10.57;;
7753;SDS011;3921;42.266;23.122;2023-05-10T17:01:35;11.53;;;9.93;;
7753;SDS011;3921;42.266;23.122;2023-05-10T17:04:01;14.27;;;9.63;;
7753;SDS011;3921;42.266;23.122;2023-05-10T17:06:28;13.00;;;9.80;;
7753;SDS011;3921;42.266;23.122;2023-05-10T17:08:55;11.80;;;10.53;;